Time;durP1;ratioP1;P1;durP2;ratioP2;P2;SDS_P1;SDS_P2;PMS_P1;PMS_P2;Temp;Humidity;BMP_temperature;BMP_pressure;BME280_temperature;BME280_humidity;BME280_pressure;Samples;Min_cycle;Max_cycle;Signal;HPM_P1;HPM_P2
2024/01/11 00:01:00;;;;;;;14.40;7.10;;;;;;;-4.79;69.76;97665.06;109353;1265;22556;-78
2024/01/11 00:03:45;;;;;;;19.70;9.10;;;;;;;-4.81;69.79;97664.94;109351;1271;22465;-78
2024/01/11 00:06:21;;;;;;;16.70;8.30;;;;;;;-4.83;69.86;97663.51;109320;1267;23883;-78
2024/01/11 00:08:52;;;;;;;22.50;9.50;;;;;;;-4.78;69.52;97651.05;109349;1272;22538;-78
2024/01/11 00:11:23;;;;;;;16.60;8.50;;;;;;;-4.72;69.20;97652.83;109405;1265;22682;-78
2024/01/11 00:13:57;;;;;;;17.60;9.10;;;;;;;-4.66;68.92;97653.25;109347;1272;22536;-78
2024/01/11 00:16:28;;;;;;;21.60;10.90;;;;;;;-4.63;68.56;97642.45;109365;1264;22598;-77
2024/01/11 00:19:00;;;;;;;16.90;9.50;;;;;;;-4.51;67.77;97640.34;109344;1266;24221;-77
2024/01/11 00:21:30;;;;;;;17.50;9.50;;;;;;;-4.49;67.28;97643.20;109311;1269;22539;-78
2024/01/11 00:24:01;;;;;;;18.90;10.60;;;;;;;-4.56;67.45;97636.86;109351;1272;22601;-78
2024/01/11 00:26:33;;;;;;;17.70;9.60;;;;;;;-4.56;67.40;97627.16;109328;1266;25342;-77
2024/01/11 00:29:04;;;;;;;14.30;7.30;;;;;;;-4.51;67.49;97616.33;109397;1272;24199;-77
2024/01/11 00:31:38;;;;;;;14.00;6.90;;;;;;;-4.50;67.26;97613.83;109391;1272;22980;-78
2024/01/11 00:34:09;;;;;;;16.10;8.70;;;;;;;-4.49;67.17;97602.67;110759;1271;22336;-78
2024/01/11 00:36:41;;;;;;;19.80;8.90;;;;;;;-4.48;66.91;97603.77;110731;1268;22139;-78
2024/01/11 00:39:12;;;;;;;14.60;6.60;;;;;;;-4.44;66.62;97603.52;110738;1271;22340;-78
2024/01/11 00:41:45;;;;;;;16.00;6.80;;;;;;;-4.40;66.39;97604.96;110753;1266;22758;-78
2024/01/11 00:44:19;;;;;;;16.00;8.00;;;;;;;-4.35;65.87;97616.17;110787;1266;22158;-78
2024/01/11 00:46:53;;;;;;;10.70;6.60;;;;;;;-4.27;65.54;97616.38;110699;1272;29778;-78
2024/01/11 00:49:24;;;;;;;22.40;9.00;;;;;;;-4.32;65.68;97610.39;109866;1272;24202;-78
2024/01/11 00:51:55;;;;;;;13.10;6.10;;;;;;;-4.25;64.76;97602.38;109306;1266;22529;-78
2024/01/11 00:54:26;;;;;;;13.60;5.80;;;;;;;-4.12;64.83;97612.64;109351;1266;22572;-78
2024/01/11 00:56:58;;;;;;;20.50;10.00;;;;;;;-4.21;65.02;97614.75;109350;1261;23766;-78
2024/01/11 00:59:31;;;;;;;20.90;10.20;;;;;;;-4.31;65.33;97615.21;109349;1270;25424;-78
2024/01/11 01:02:02;;;;;;;20.00;10.70;;;;;;;-4.44;65.61;97612.48;109357;1272;22700;-78
2024/01/11 01:04:33;;;;;;;18.30;9.10;;;;;;;-4.54;65.69;97612.64;109324;1266;24375;-78
2024/01/11 01:07:05;;;;;;;15.10;8.00;;;;;;;-4.64;65.87;97619.94;109321;1272;23165;-78
2024/01/11 01:09:38;;;;;;;23.50;8.80;;;;;;;-4.72;66.09;97617.65;109357;1272;22524;-78
2024/01/11 01:12:09;;;;;;;20.50;10.60;;;;;;;-4.75;66.36;97607.23;109386;1272;22466;-78
2024/01/11 01:14:40;;;;;;;12.70;5.80;;;;;;;-4.80;66.32;97605.16;109358;1266;24913;-78
2024/01/11 01:17:11;;;;;;;17.20;6.80;;;;;;;-4.89;66.46;97610.54;109353;1264;22578;-78
2024/01/11 01:19:43;;;;;;;19.70;8.30;;;;;;;-5.07;66.24;97616.41;109397;1272;22643;-77
2024/01/11 01:22:16;;;;;;;21.50;11.70;;;;;;;-5.21;66.56;97610.43;109380;1266;22605;-78
2024/01/11 01:24:52;;;;;;;20.20;10.30;;;;;;;-5.25;66.82;97606.21;109442;1272;22475;-77
2024/01/11 01:27:24;;;;;;;23.70;10.50;;;;;;;-5.40;66.84;97600.45;109349;1266;22520;-78
2024/01/11 01:29:57;;;;;;;22.70;11.00;;;;;;;-5.56;66.81;97605.98;110721;1269;22295;-79
2024/01/11 01:32:30;;;;;;;21.50;11.10;;;;;;;-5.67;67.47;97603.58;110732;1271;22873;-79
2024/01/11 01:35:02;;;;;;;25.90;11.80;;;;;;;-5.74;67.38;97603.45;110732;1271;22255;-78
2024/01/11 01:37:36;;;;;;;18.20;8.90;;;;;;;-5.83;67.48;97600.05;110743;1265;23910;-78
2024/01/11 01:40:09;;;;;;;27.50;13.80;;;;;;;-5.93;67.41;97593.14;110724;1265;22358;-78
2024/01/11 01:42:46;;;;;;;28.80;13.50;;;;;;;-6.03;67.69;97593.27;110791;1271;22214;-78
2024/01/11 01:45:21;;;;;;;31.70;15.20;;;;;;;-6.10;68.09;97596.20;110716;1265;22216;-78
2024/01/11 01:47:52;;;;;;;27.50;12.50;;;;;;;-6.18;68.23;97594.21;110739;1271;22193;-78
2024/01/11 01:50:25;;;;;;;26.80;14.00;;;;;;;-6.23;68.48;97594.52;110746;1266;22241;-78
2024/01/11 01:52:58;;;;;;;29.80;13.60;;;;;;;-6.31;68.75;97591.39;110721;1271;22168;-78
2024/01/11 01:55:30;;;;;;;29.20;12.70;;;;;;;-6.38;69.22;97590.77;110714;1271;23050;-77
2024/01/11 01:58:06;;;;;;;22.60;11.80;;;;;;;-6.38;69.34;97592.02;110733;1271;22268;-78
2024/01/11 02:00:41;;;;;;;25.30;12.30;;;;;;;-6.25;69.58;97590.45;110780;1254;22296;-78
2024/01/11 02:03:13;;;;;;;21.30;11.50;;;;;;;-6.13;69.77;97582.73;110708;1266;22203;-78
2024/01/11 02:05:53;;;;;;;26.30;13.80;;;;;;;-6.01;69.93;97588.11;110714;1266;25397;-78
2024/01/11 02:08:37;;;;;;;28.60;12.80;;;;;;;-6.00;69.77;97587.95;110728;1271;22175;-78
2024/01/11 02:11:09;;;;;;;28.60;14.20;;;;;;;-6.05;69.72;97590.38;110720;1265;22777;-78
2024/01/11 02:13:41;;;;;;;26.10;13.10;;;;;;;-6.10;69.74;97586.36;110781;1271;22352;-78
2024/01/11 02:16:14;;;;;;;26.10;13.90;;;;;;;-6.12;69.89;97587.44;110681;1271;25198;-78
2024/01/11 02:18:45;;;;;;;20.30;10.50;;;;;;;-6.14;70.11;97591.41;110774;1272;23371;-78
2024/01/11 02:21:19;;;;;;;22.50;9.70;;;;;;;-6.19;70.10;97588.13;110708;1271;22284;-78
2024/01/11 02:24:04;;;;;;;19.80;10.90;;;;;;;-6.26;70.26;97581.56;110715;1272;23428;-78
2024/01/11 02:26:35;;;;;;;24.60;12.20;;;;;;;-6.29;70.35;97574.61;110708;1271;22271;-78
2024/01/11 02:29:07;;;;;;;21.00;10.60;;;;;;;-6.27;70.45;97569.33;110720;1271;22294;-78
2024/01/11 02:31:40;;;;;;;19.50;8.70;;;;;;;-6.23;70.78;97567.70;110762;1272;22901;-78
2024/01/11 02:34:12;;;;;;;19.60;9.60;;;;;;;-6.20;70.60;97563.78;110779;1271;22262;-78
2024/01/11 02:36:46;;;;;;;16.80;9.10;;;;;;;-6.19;70.66;97559.20;110724;1271;30034;-78
2024/01/11 02:39:20;;;;;;;18.10;7.10;;;;;;;-6.19;70.43;97561.60;110736;1271;23237;-78
2024/01/11 02:41:54;;;;;;;22.20;11.00;;;;;;;-6.24;70.41;97560.22;110753;1272;22379;-78
2024/01/11 02:44:29;;;;;;;21.60;9.70;;;;;;;-6.28;70.42;97562.67;110701;1272;22256;-78
2024/01/11 02:47:00;;;;;;;20.00;10.80;;;;;;;-6.32;70.53;97563.05;110718;1271;22959;-78
2024/01/11 02:49:31;;;;;;;22.50;11.20;;;;;;;-6.40;70.78;97561.41;109449;1271;22605;-78
2024/01/11 02:52:03;;;;;;;26.20;12.10;;;;;;;-6.49;70.73;97554.43;109369;1266;23053;-78
2024/01/11 02:54:36;;;;;;;23.10;12.30;;;;;;;-6.58;71.00;97547.04;109289;1272;22538;-78
2024/01/11 02:57:08;;;;;;;21.50;11.50;;;;;;;-6.64;71.38;97548.94;109298;1266;22830;-78
2024/01/11 02:59:39;;;;;;;20.10;9.70;;;;;;;-6.62;71.49;97553.77;109347;1272;22518;-78
2024/01/11 03:02:10;;;;;;;27.10;10.90;;;;;;;-6.57;71.62;97545.09;109366;1266;22511;-78
2024/01/11 03:04:41;;;;;;;24.20;13.40;;;;;;;-6.56;71.56;97549.80;109393;1271;22536;-78
2024/01/11 03:07:12;;;;;;;29.60;12.40;;;;;;;-6.62;71.44;97548.93;109359;1268;22694;-78
2024/01/11 03:09:43;;;;;;;25.30;12.90;;;;;;;-6.71;71.95;97545.48;109392;1272;23856;-78
2024/01/11 03:12:18;;;;;;;24.40;12.20;;;;;;;-6.81;72.07;97547.68;109363;1271;22556;-78
2024/01/11 03:14:52;;;;;;;26.70;12.80;;;;;;;-6.93;72.56;97550.17;109392;1272;22517;-78
2024/01/11 03:17:23;;;;;;;35.30;16.90;;;;;;;-7.03;72.51;97553.88;109303;1271;22536;-78
2024/01/11 03:19:54;;;;;;;29.30;13.70;;;;;;;-7.17;73.05;97554.91;109380;1272;22561;-78
2024/01/11 03:22:24;;;;;;;24.50;12.60;;;;;;;-7.31;73.62;97558.09;109327;1269;22557;-78
2024/01/11 03:24:56;;;;;;;31.10;13.10;;;;;;;-7.39;73.89;97565.02;109381;1271;23047;-78
2024/01/11 03:27:27;;;;;;;24.70;11.60;;;;;;;-7.47;74.00;97566.61;109346;1272;22563;-78
2024/01/11 03:29:58;;;;;;;30.90;15.60;;;;;;;-7.53;74.17;97565.45;109332;1272;25243;-78
2024/01/11 03:32:30;;;;;;;21.50;10.70;;;;;;;-7.56;74.69;97570.02;109320;1272;24209;-78
2024/01/11 03:35:01;;;;;;;23.00;11.30;;;;;;;-7.60;74.37;97577.27;109330;1249;22537;-78
2024/01/11 03:37:31;;;;;;;30.40;15.70;;;;;;;-7.66;74.29;97569.61;109361;1269;22547;-78
2024/01/11 03:40:04;;;;;;;21.30;10.90;;;;;;;-7.69;74.50;97565.59;109354;1269;25249;-78
2024/01/11 03:42:35;;;;;;;19.80;9.20;;;;;;;-7.81;74.22;97557.16;109406;1272;22789;-78
2024/01/11 03:45:07;;;;;;;20.50;10.20;;;;;;;-7.95;74.21;97547.86;109381;1264;22532;-78
2024/01/11 03:47:38;;;;;;;22.00;10.70;;;;;;;-8.07;74.17;97547.92;110706;1266;23028;-78
2024/01/11 03:50:10;;;;;;;29.00;13.90;;;;;;;-8.14;74.16;97553.34;109387;1266;23239;-78
2024/01/11 03:52:43;;;;;;;29.10;14.40;;;;;;;-8.15;74.27;97552.96;110722;1271;22941;-78
2024/01/11 03:55:16;;;;;;;22.30;11.30;;;;;;;-8.21;74.71;97534.30;110690;1272;22557;-78
2024/01/11 03:57:52;;;;;;;31.00;15.50;;;;;;;-8.35;74.58;97527.70;110699;1268;25856;-78
2024/01/11 04:00:24;;;;;;;30.50;15.20;;;;;;;-8.54;75.27;97531.42;110726;1271;22179;-78
2024/01/11 04:03:01;;;;;;;27.30;14.30;;;;;;;-8.65;75.90;97527.61;110752;1266;22298;-78
2024/01/11 04:05:34;;;;;;;28.40;15.00;;;;;;;-8.65;76.01;97516.13;110777;1272;22193;-78
2024/01/11 04:08:08;;;;;;;28.90;15.40;;;;;;;-8.56;76.27;97515.55;110150;1272;22506;-78
2024/01/11 04:10:38;;;;;;;33.90;13.90;;;;;;;-8.56;76.18;97510.77;109301;1272;22559;-78
2024/01/11 04:13:10;;;;;;;28.00;13.00;;;;;;;-8.70;76.28;97505.60;109312;1272;22556;-78
2024/01/11 04:15:42;;;;;;;24.50;11.80;;;;;;;-8.73;76.41;97516.00;109284;1272;23731;-77
2024/01/11 04:18:13;;;;;;;16.20;8.80;;;;;;;-8.56;76.69;97526.17;109336;1272;24248;-78
2024/01/11 04:20:46;;;;;;;22.00;9.60;;;;;;;-8.32;76.96;97518.71;109340;1272;22644;-78
2024/01/11 04:23:22;;;;;;;15.90;7.60;;;;;;;-8.07;77.09;97525.42;109323;1266;25290;-77
2024/01/11 04:25:56;;;;;;;14.70;6.40;;;;;;;-7.84;76.56;97534.14;109262;1272;22576;-78
2024/01/11 04:28:29;;;;;;;14.80;8.40;;;;;;;-7.63;76.07;97527.98;109329;1266;22524;-78
2024/01/11 04:31:00;;;;;;;16.90;6.60;;;;;;;-7.53;76.20;97525.57;109321;1266;24251;-78
2024/01/11 04:33:31;;;;;;;16.40;7.60;;;;;;;-7.40;75.55;97524.11;109347;1272;22627;-78
2024/01/11 04:36:02;;;;;;;15.90;6.40;;;;;;;-7.35;75.78;97516.76;109304;1269;24165;-77
2024/01/11 04:38:32;;;;;;;15.40;8.10;;;;;;;-7.39;75.29;97515.63;109281;1270;22479;-78
2024/01/11 04:41:08;;;;;;;14.60;5.80;;;;;;;-7.42;75.06;97515.72;109309;1272;22556;-78
2024/01/11 04:43:40;;;;;;;15.90;6.80;;;;;;;-7.42;74.83;97516.59;109294;1269;22529;-78
2024/01/11 04:46:21;;;;;;;6.90;4.70;;;;;;;-7.52;74.78;97513.15;109323;1272;22575;-79
2024/01/11 04:48:53;;;;;;;10.50;4.40;;;;;;;-7.42;75.10;97502.42;109330;1270;23705;-78
2024/01/11 04:51:29;;;;;;;11.10;3.60;;;;;;;-7.12;74.92;97494.02;109339;1272;22528;-78
2024/01/11 04:54:00;;;;;;;6.80;3.30;;;;;;;-6.68;74.37;97484.20;109346;1269;22528;-78
2024/01/11 04:56:31;;;;;;;7.10;3.60;;;;;;;-5.83;72.52;97476.13;109314;1272;22573;-78
2024/01/11 04:59:05;;;;;;;11.10;5.40;;;;;;;-5.02;70.33;97474.91;109318;1272;23812;-78
2024/01/11 05:01:38;;;;;;;11.00;4.80;;;;;;;-5.12;68.84;97474.34;109311;1272;25131;-78
2024/01/11 05:04:10;;;;;;;8.20;3.50;;;;;;;-5.12;67.72;97473.11;109320;1272;22478;-78
2024/01/11 05:06:43;;;;;;;5.40;2.50;;;;;;;-4.66;66.39;97462.34;109313;1272;22667;-78
2024/01/11 05:09:15;;;;;;;10.80;4.90;;;;;;;-4.22;64.35;97469.50;109311;1272;22559;-78
2024/01/11 05:11:46;;;;;;;4.90;1.90;;;;;;;-4.44;63.23;97471.48;109339;1272;25407;-78
2024/01/11 05:14:17;;;;;;;4.00;2.00;;;;;;;-4.67;63.28;97463.94;109270;1266;23231;-77
2024/01/11 05:16:48;;;;;;;20.60;10.10;;;;;;;-4.82;62.91;97464.02;109340;1269;22541;-78
2024/01/11 05:19:22;;;;;;;16.40;8.40;;;;;;;-5.70;62.73;97456.04;109320;1269;22683;-78
2024/01/11 05:21:53;;;;;;;18.60;10.00;;;;;;;-6.44;63.74;97452.84;109317;1259;25955;-78
2024/01/11 05:24:28;;;;;;;16.00;7.60;;;;;;;-6.84;64.38;97469.79;109299;1272;23133;-78
2024/01/11 05:27:00;;;;;;;13.80;7.00;;;;;;;-6.94;65.75;97473.52;109287;1266;23301;-78
2024/01/11 05:29:32;;;;;;;12.00;5.10;;;;;;;-6.76;66.49;97468.50;109328;1266;22580;-78
2024/01/11 05:32:05;;;;;;;16.00;7.40;;;;;;;-6.49;67.09;97465.16;109388;1266;22642;-78
2024/01/11 05:34:38;;;;;;;15.40;6.50;;;;;;;-6.44;67.10;97462.34;110733;1256;22179;-78
2024/01/11 05:37:09;;;;;;;10.10;5.10;;;;;;;-6.42;67.25;97456.89;110699;1272;22166;-78
2024/01/11 05:39:41;;;;;;;8.80;4.80;;;;;;;-6.35;67.44;97447.97;110730;1271;22305;-78
2024/01/11 05:42:13;;;;;;;11.90;5.30;;;;;;;-6.31;67.68;97441.66;110728;1271;22285;-79
2024/01/11 05:44:46;;;;;;;9.30;4.50;;;;;;;-6.20;68.01;97434.80;110711;1271;22279;-78
2024/01/11 05:47:20;;;;;;;8.10;3.30;;;;;;;-6.07;68.24;97424.20;110650;1271;39151;-78
2024/01/11 05:49:51;;;;;;;6.00;3.20;;;;;;;-5.86;68.45;97422.38;109326;1271;22676;-78
2024/01/11 05:52:22;;;;;;;6.50;3.60;;;;;;;-5.67;68.23;97408.33;109338;1272;22585;-78
2024/01/11 05:54:56;;;;;;;8.60;4.30;;;;;;;-5.51;68.24;97399.73;109335;1272;22937;-78
2024/01/11 05:57:28;;;;;;;8.00;3.80;;;;;;;-5.37;68.32;97388.55;109328;1272;22659;-78
2024/01/11 06:00:00;;;;;;;7.40;3.70;;;;;;;-5.21;68.04;97392.42;110738;1271;22336;-78
2024/01/11 06:02:32;;;;;;;8.00;3.20;;;;;;;-5.15;68.12;97383.19;110756;1269;22644;-78
2024/01/11 06:05:08;;;;;;;5.50;2.90;;;;;;;-5.02;68.21;97392.34;110779;1269;22284;-78
2024/01/11 06:07:41;;;;;;;5.90;2.40;;;;;;;-4.84;68.30;97400.79;110725;1269;23055;-78
2024/01/11 06:10:12;;;;;;;7.40;2.90;;;;;;;-4.67;68.29;97402.60;110742;1271;22949;-78
2024/01/11 06:12:44;;;;;;;5.00;2.50;;;;;;;-4.56;68.12;97392.04;110742;1266;22276;-78
2024/01/11 06:15:19;;;;;;;6.10;2.40;;;;;;;-4.45;67.79;97386.46;110744;1271;22468;-79
2024/01/11 06:17:57;;;;;;;6.30;2.50;;;;;;;-4.30;67.46;97383.35;110693;1272;22688;-78
2024/01/11 06:20:29;;;;;;;4.70;2.30;;;;;;;-4.12;66.58;97385.48;110750;1271;22345;-78
2024/01/11 06:23:02;;;;;;;5.40;2.20;;;;;;;-4.03;66.46;97387.95;110704;1270;22278;-78
2024/01/11 06:25:37;;;;;;;5.20;2.30;;;;;;;-3.96;66.37;97389.53;110728;1272;22965;-78
2024/01/11 06:28:10;;;;;;;5.30;2.10;;;;;;;-3.82;65.91;97383.84;110693;1272;22191;-78
2024/01/11 06:30:43;;;;;;;3.40;2.10;;;;;;;-3.70;65.36;97377.54;110640;1272;22190;-78
2024/01/11 06:33:17;;;;;;;7.70;2.70;;;;;;;-3.66;65.10;97381.77;110640;1271;22491;-78
2024/01/11 06:35:56;;;;;;;4.60;1.70;;;;;;;-3.74;65.03;97383.88;110637;1265;23417;-78
2024/01/11 06:38:28;;;;;;;4.70;2.50;;;;;;;-3.74;65.04;97385.95;110731;1266;23122;-78
2024/01/11 06:41:00;;;;;;;5.60;2.50;;;;;;;-3.67;65.03;97390.09;110726;1257;22563;-79
2024/01/11 06:43:41;;;;;;;8.30;3.10;;;;;;;-3.66;64.80;97391.28;110734;1271;22158;-79
2024/01/11 06:46:14;;;;;;;6.70;3.20;;;;;;;-3.61;64.42;97397.46;110721;1266;23011;-78
2024/01/11 06:48:53;;;;;;;8.70;4.40;;;;;;;-3.60;64.01;97398.33;110738;1272;22180;-79
2024/01/11 06:51:23;;;;;;;;;;;;;;;-3.78;63.96;97414.62;110665;1271;22336;-78
2024/01/11 06:54:02;;;;;;;18.50;9.60;;;;;;;-3.94;64.11;97420.63;110707;1272;22169;-78
2024/01/11 06:56:35;;;;;;;10.40;5.40;;;;;;;-3.93;64.16;97404.61;110686;1271;22370;-77
2024/01/11 06:59:08;;;;;;;12.40;7.10;;;;;;;-4.08;64.06;97399.99;110732;1271;22188;-77
2024/01/11 07:01:40;;;;;;;12.50;7.20;;;;;;;-4.25;64.13;97396.98;110680;1266;23122;-78
2024/01/11 07:04:11;;;;;;;11.60;7.30;;;;;;;-4.30;64.35;97392.00;110688;1272;22181;-79
2024/01/11 07:06:43;;;;;;;12.10;5.90;;;;;;;-4.31;64.42;97393.14;110683;1271;23868;-78
2024/01/11 07:09:16;;;;;;;12.80;7.00;;;;;;;-4.15;64.63;97389.91;110666;1267;22377;-79
2024/01/11 07:11:52;;;;;;;9.30;5.20;;;;;;;-3.98;64.71;97379.60;110665;1272;22389;-79
2024/01/11 07:14:24;;;;;;;7.40;3.60;;;;;;;-3.79;64.75;97363.45;110706;1271;22193;-78
2024/01/11 07:16:55;;;;;;;9.50;4.00;;;;;;;-3.61;64.50;97355.29;110676;1272;22247;-79
2024/01/11 07:19:26;;;;;;;8.30;4.30;;;;;;;-3.35;64.49;97343.23;109352;1272;22629;-78
2024/01/11 07:21:57;;;;;;;5.20;2.70;;;;;;;-3.03;63.89;97332.10;109306;1272;22553;-78
2024/01/11 07:24:37;;;;;;;7.80;3.40;;;;;;;-2.81;62.98;97318.23;109359;1272;22538;-77
2024/01/11 07:27:08;;;;;;;5.20;3.50;;;;;;;-2.56;61.07;97309.46;109274;1272;29764;-77
2024/01/11 07:29:39;;;;;;;3.90;2.30;;;;;;;-2.17;58.45;97310.27;109282;1272;23694;-77
2024/01/11 07:32:21;;;;;;;4.50;2.60;;;;;;;-1.77;55.95;97311.91;109344;1266;22603;-78
2024/01/11 07:34:52;;;;;;;6.50;3.40;;;;;;;-1.61;54.41;97309.98;109368;1272;22639;-78
2024/01/11 07:37:25;;;;;;;4.90;2.70;;;;;;;-1.60;54.26;97311.90;109304;1272;22478;-78
2024/01/11 07:39:56;;;;;;;7.90;2.60;;;;;;;-1.65;54.60;97319.05;109331;1269;22589;-77
2024/01/11 07:42:29;;;;;;;6.40;3.40;;;;;;;-1.63;54.50;97320.92;109355;1272;22517;-78
2024/01/11 07:45:02;;;;;;;8.00;2.80;;;;;;;-1.66;54.27;97316.81;109360;1272;22542;-77
2024/01/11 07:47:33;;;;;;;5.70;3.20;;;;;;;-1.69;54.15;97313.48;109309;1272;27104;-77
2024/01/11 07:50:06;;;;;;;6.40;2.80;;;;;;;-1.66;54.02;97307.41;109348;1266;22604;-77
2024/01/11 07:52:37;;;;;;;8.40;3.60;;;;;;;-1.60;53.69;97304.39;109336;1266;23801;-77
2024/01/11 07:55:13;;;;;;;8.00;4.40;;;;;;;-1.56;53.89;97302.90;109349;1267;22521;-77
2024/01/11 07:57:44;;;;;;;7.40;2.90;;;;;;;-1.55;54.13;97301.21;109320;1266;22939;-77
2024/01/11 08:00:16;;;;;;;5.00;2.50;;;;;;;-1.51;54.37;97309.96;109316;1272;22617;-78
2024/01/11 08:02:47;;;;;;;4.80;2.50;;;;;;;-1.45;54.29;97311.13;109380;1269;22774;-78
2024/01/11 08:05:19;;;;;;;5.40;2.80;;;;;;;-1.42;53.65;97300.52;109307;1269;22582;-77
2024/01/11 08:07:49;;;;;;;6.40;2.80;;;;;;;-1.38;53.86;97298.37;109300;1269;22560;-77
2024/01/11 08:10:21;;;;;;;5.10;2.50;;;;;;;-1.38;53.70;97306.74;109381;1266;22478;-77
2024/01/11 08:12:57;;;;;;;6.20;2.90;;;;;;;-1.34;53.57;97323.17;109325;1267;25403;-77
2024/01/11 08:15:30;;;;;;;5.50;2.80;;;;;;;-1.19;53.83;97336.96;109350;1269;23759;-77
2024/01/11 08:18:01;;;;;;;7.00;4.00;;;;;;;-1.07;53.88;97342.80;109274;1266;22528;-78
2024/01/11 08:20:32;;;;;;;7.60;3.80;;;;;;;-0.97;54.12;97340.89;109306;1272;22548;-77
2024/01/11 08:23:03;;;;;;;8.70;4.80;;;;;;;-0.94;54.96;97342.23;109341;1272;22569;-77
2024/01/11 08:25:35;;;;;;;8.70;4.60;;;;;;;-0.47;55.91;97342.60;109268;1272;25194;-77
2024/01/11 08:28:07;;;;;;;7.50;4.30;;;;;;;-0.07;55.96;97340.72;109309;1272;22528;-77
2024/01/11 08:30:38;;;;;;;7.30;4.10;;;;;;;0.23;55.81;97333.94;109281;1271;22578;-77
2024/01/11 08:33:09;;;;;;;7.20;4.40;;;;;;;0.22;55.59;97327.04;109306;1272;22521;-77
2024/01/11 08:35:41;;;;;;;8.80;4.80;;;;;;;0.24;55.58;97322.23;109244;1272;22487;-77
2024/01/11 08:38:12;;;;;;;9.70;4.90;;;;;;;0.28;55.85;97323.59;109214;1270;22477;-77
2024/01/11 08:40:46;;;;;;;8.50;4.80;;;;;;;0.19;56.10;97327.13;109247;1272;25424;-76
2024/01/11 08:43:25;;;;;;;8.90;5.00;;;;;;;0.23;55.86;97315.42;110584;1272;22411;-78
2024/01/11 08:46:01;;;;;;;8.30;4.70;;;;;;;0.21;55.78;97312.13;110597;1272;22456;-76
2024/01/11 08:48:35;;;;;;;8.30;4.80;;;;;;;0.20;55.75;97309.04;110734;1269;22364;-77
2024/01/11 08:51:08;;;;;;;9.40;5.50;;;;;;;0.28;55.79;97311.14;110704;1272;22182;-77
2024/01/11 08:53:40;;;;;;;8.50;4.10;;;;;;;0.40;55.91;97303.27;110706;1266;22183;-77
2024/01/11 08:56:12;;;;;;;8.70;4.60;;;;;;;0.49;56.05;97309.08;110659;1263;34552;-80
2024/01/11 08:58:44;;;;;;;9.60;5.20;;;;;;;0.47;55.78;97310.36;110716;1272;22200;-78
2024/01/11 09:01:17;;;;;;;9.00;5.20;;;;;;;0.44;56.24;97313.92;110701;1272;22262;-78
2024/01/11 09:03:48;;;;;;;3.80;1.80;;;;;;;0.36;55.89;97310.60;110572;1272;22661;-77
2024/01/11 09:06:19;;;;;;;5.10;2.30;;;;;;;-0.14;53.86;97320.71;109356;1269;22543;-76
2024/01/11 09:08:51;;;;;;;5.60;3.30;;;;;;;-0.59;53.25;97333.86;109345;1269;22556;-76
2024/01/11 09:11:22;;;;;;;5.50;3.10;;;;;;;-0.88;52.91;97325.10;109314;1272;22519;-77
2024/01/11 09:13:57;;;;;;;5.50;2.10;;;;;;;-1.05;53.55;97322.20;109395;1272;22527;-76
2024/01/11 09:16:31;;;;;;;6.10;3.00;;;;;;;-1.17;53.40;97316.92;109342;1272;25485;-76
2024/01/11 09:19:02;;;;;;;7.00;2.60;;;;;;;-1.24;52.44;97316.23;109312;1272;22581;-76
2024/01/11 09:21:33;;;;;;;6.00;2.70;;;;;;;-1.29;52.48;97310.33;109356;1272;22690;-76
2024/01/11 09:24:07;;;;;;;4.80;2.50;;;;;;;-1.30;52.47;97299.23;109345;1272;22687;-76
2024/01/11 09:26:38;;;;;;;6.90;2.70;;;;;;;-1.31;50.63;97302.86;109304;1269;22678;-76
2024/01/11 09:29:09;;;;;;;4.70;2.20;;;;;;;-1.35;50.43;97303.67;109362;1272;22967;-76
2024/01/11 09:31:42;;;;;;;6.30;3.00;;;;;;;-1.39;49.47;97299.85;109334;1272;22515;-76
2024/01/11 09:34:14;;;;;;;4.80;2.20;;;;;;;-1.43;47.46;97282.67;110716;1269;22283;-76
2024/01/11 09:36:50;;;;;;;5.40;2.50;;;;;;;-1.46;46.37;97291.52;110762;1272;22199;-75
2024/01/11 09:39:23;;;;;;;4.50;2.40;;;;;;;-1.45;47.36;97297.41;110689;1272;22707;-75
2024/01/11 09:42:07;;;;;;;6.10;2.40;;;;;;;-1.43;47.87;97304.50;110231;1272;24213;-75
2024/01/11 09:44:39;;;;;;;4.00;1.70;;;;;;;-1.42;48.72;97318.60;109334;1272;22525;-75
2024/01/11 09:47:14;;;;;;;6.70;2.60;;;;;;;-1.39;49.22;97333.10;110529;1265;22362;-76
2024/01/11 09:50:01;;;;;;;5.30;3.00;;;;;;;-1.37;49.07;97332.13;110643;1272;22262;-76
2024/01/11 09:52:38;;;;;;;6.00;3.20;;;;;;;-1.38;48.84;97332.47;110683;1272;22330;-76
2024/01/11 09:55:11;;;;;;;6.30;3.00;;;;;;;-1.39;48.54;97319.63;110627;1272;22396;-76
2024/01/11 09:57:54;;;;;;;3.80;1.70;;;;;;;-1.39;47.40;97315.13;110665;1271;24060;-76
2024/01/11 10:00:28;;;;;;;5.70;2.80;;;;;;;-1.37;47.52;97301.46;110655;1272;22208;-75
2024/01/11 10:03:04;;;;;;;3.90;1.80;;;;;;;-1.34;47.09;97297.20;110649;1269;22644;-76
2024/01/11 10:05:39;;;;;;;5.50;2.90;;;;;;;-1.31;46.31;97286.02;110623;1272;23386;-76
2024/01/11 10:08:12;;;;;;;7.40;3.50;;;;;;;-1.24;46.41;97268.48;110617;1272;23473;-76
2024/01/11 10:10:48;;;;;;;6.00;3.40;;;;;;;-1.18;46.36;97274.86;110673;1269;22424;-76
2024/01/11 10:13:27;;;;;;;9.10;3.10;;;;;;;-1.13;46.02;97276.86;110672;1272;22189;-76
2024/01/11 10:16:09;;;;;;;6.80;3.50;;;;;;;-1.08;46.84;97269.46;110626;1270;22936;-76
2024/01/11 10:18:40;;;;;;;6.30;3.10;;;;;;;-1.06;46.91;97279.20;109374;1267;25364;-75
2024/01/11 10:21:11;;;;;;;8.90;4.00;;;;;;;-1.07;47.18;97281.91;109356;1272;22589;-76
2024/01/11 10:23:42;;;;;;;8.70;4.30;;;;;;;-1.09;46.95;97276.10;109309;1272;24247;-75
2024/01/11 10:26:19;;;;;;;6.40;3.20;;;;;;;-1.10;47.12;97268.73;109301;1270;22531;-75
2024/01/11 10:29:00;;;;;;;9.50;4.80;;;;;;;-1.11;47.09;97266.56;109295;1266;22481;-76
2024/01/11 10:31:34;;;;;;;8.00;3.20;;;;;;;-1.11;46.58;97257.77;109329;1267;22574;-76
2024/01/11 10:34:09;;;;;;;8.10;3.60;;;;;;;-1.11;47.79;97261.68;109279;1269;22567;-76
2024/01/11 10:36:40;;;;;;;8.70;4.30;;;;;;;-1.12;47.56;97245.50;109309;1272;23135;-77
2024/01/11 10:39:14;;;;;;;10.50;5.10;;;;;;;-1.12;48.29;97245.96;109360;1268;25453;-76
2024/01/11 10:41:52;;;;;;;9.10;4.80;;;;;;;-1.14;48.55;97239.27;109331;1272;22546;-76
2024/01/11 10:44:28;;;;;;;12.30;5.40;;;;;;;-1.18;49.68;97236.95;106828;1270;3297436;-79
2024/01/11 10:47:00;;;;;;;9.50;4.00;;;;;;;-1.23;50.12;97232.36;109312;1269;22472;-77
2024/01/11 10:49:33;;;;;;;21.90;4.60;;;;;;;-1.27;50.79;97235.96;109354;1269;22560;-78
2024/01/11 10:52:06;;;;;;;11.60;4.70;;;;;;;-1.29;51.45;97233.02;109345;1264;22585;-77
2024/01/11 10:54:41;;;;;;;9.70;5.00;;;;;;;-1.29;50.83;97233.05;109322;1266;22543;-76
2024/01/11 10:57:13;;;;;;;15.20;5.30;;;;;;;-1.31;51.38;97234.13;109313;1272;23577;-77
2024/01/11 10:59:49;;;;;;;10.40;4.40;;;;;;;-1.32;51.79;97235.68;109350;1269;22822;-76
2024/01/11 11:02:23;;;;;;;8.20;3.70;;;;;;;-1.33;52.30;97232.83;109311;1267;22549;-77
2024/01/11 11:04:57;;;;;;;8.00;3.60;;;;;;;-1.33;51.75;97213.43;110706;1272;22492;-77
2024/01/11 11:07:29;;;;;;;11.70;5.00;;;;;;;-1.30;51.93;97212.45;110692;1272;22258;-78
2024/01/11 11:10:04;;;;;;;11.30;5.10;;;;;;;-1.27;52.02;97218.73;110605;1265;23067;-78
2024/01/11 11:12:38;;;;;;;12.00;6.30;;;;;;;-1.30;52.32;97209.73;110687;1271;22385;-77
2024/01/11 11:15:13;;;;;;;12.00;4.90;;;;;;;-1.33;52.75;97205.46;110702;1272;23038;-77
2024/01/11 11:17:55;;;;;;;9.40;4.30;;;;;;;-1.35;52.93;97197.89;110688;1269;22210;-77
2024/01/11 11:20:27;;;;;;;12.90;5.80;;;;;;;-1.38;53.49;97193.19;110593;1269;22492;-77
2024/01/11 11:23:18;;;;;;;11.10;3.60;;;;;;;-1.39;53.57;97189.91;110668;1267;22348;-78
2024/01/11 11:25:55;;;;;;;8.90;3.90;;;;;;;-1.36;53.36;97170.80;110649;1272;22183;-77
2024/01/11 11:28:34;;;;;;;5.40;3.00;;;;;;;-1.26;52.84;97175.83;110555;1273;22194;-78
2024/01/11 11:31:06;;;;;;;6.70;3.80;;;;;;;-1.21;52.81;97169.62;110541;1270;22185;-77
2024/01/11 11:33:39;;;;;;;9.30;4.90;;;;;;;-1.18;53.06;97166.23;110577;1267;22339;-78
2024/01/11 11:36:18;;;;;;;8.90;4.60;;;;;;;-1.20;53.08;97165.70;110541;1272;22274;-77
2024/01/11 11:38:51;;;;;;;10.00;5.30;;;;;;;-1.24;53.70;97160.60;110574;1267;22190;-77
2024/01/11 11:41:23;;;;;;;9.10;5.10;;;;;;;-1.27;52.95;97156.30;110584;1272;22332;-78
2024/01/11 11:44:01;;;;;;;7.20;3.80;;;;;;;-1.26;53.61;97162.15;109620;1267;22538;-78
2024/01/11 11:46:33;;;;;;;7.20;3.90;;;;;;;-1.27;53.36;97153.76;109250;1270;22585;-77